createdAt,value
2022-09-11T00:00:45.029Z,1006.91
2022-09-11T00:01:45.022Z,1006.87
2022-09-11T00:02:45.026Z,1006.89
2022-09-11T00:03:45.333Z,1006.85
2022-09-11T00:04:44.981Z,1006.88
2022-09-11T00:05:44.964Z,1006.87
2022-09-11T00:06:44.962Z,1006.87
2022-09-11T00:07:44.935Z,1006.88
2022-09-11T00:08:44.927Z,1006.87
2022-09-11T00:09:44.939Z,1006.86
2022-09-11T00:10:44.905Z,1006.85
2022-09-11T00:11:44.895Z,1006.87
2022-09-11T00:12:44.887Z,1006.87
2022-09-11T00:13:44.868Z,1006.87
2022-09-11T00:14:44.861Z,1006.88
2022-09-11T00:15:44.860Z,1006.90
2022-09-11T00:16:44.899Z,1006.87
2022-09-11T00:17:44.830Z,1006.93
2022-09-11T00:18:44.832Z,1006.89
2022-09-11T00:19:44.804Z,1006.92
2022-09-11T00:20:44.832Z,1006.90
2022-09-11T00:21:44.785Z,1006.91
2022-09-11T00:22:44.783Z,1006.90
2022-09-11T00:23:44.765Z,1006.92
2022-09-11T00:24:44.754Z,1006.95
2022-09-11T00:25:44.738Z,1006.96
2022-09-11T00:26:44.745Z,1007.00
2022-09-11T00:27:44.721Z,1006.96
2022-09-11T00:28:44.724Z,1006.98
2022-09-11T00:29:44.692Z,1006.93
2022-09-11T00:30:44.690Z,1006.94
2022-09-11T00:31:44.788Z,1006.93
2022-09-11T00:32:44.665Z,1006.93
2022-09-11T00:33:44.660Z,1006.90
2022-09-11T00:34:44.663Z,1006.90
2022-09-11T00:35:44.644Z,1006.90
2022-09-11T00:36:44.649Z,1006.90
2022-09-11T00:37:44.621Z,1006.92
2022-09-11T00:38:44.610Z,1006.90
2022-09-11T00:39:44.629Z,1006.91
2022-09-11T00:40:44.583Z,1006.91
2022-09-11T00:41:44.562Z,1006.94
2022-09-11T00:42:44.563Z,1006.97
2022-09-11T00:43:44.553Z,1007.00
2022-09-11T00:44:44.559Z,1006.96
2022-09-11T00:45:44.556Z,1006.97
2022-09-11T00:46:44.520Z,1006.96
2022-09-11T00:47:44.498Z,1006.96
2022-09-11T00:48:44.494Z,1007.00
2022-09-11T00:49:44.505Z,1007.00
2022-09-11T00:50:44.468Z,1006.97
2022-09-11T00:51:44.469Z,1006.99
2022-09-11T00:52:44.458Z,1006.97
2022-09-11T00:53:44.448Z,1006.97
2022-09-11T00:54:44.454Z,1006.97
2022-09-11T00:55:44.419Z,1006.94
2022-09-11T00:56:44.409Z,1006.94
2022-09-11T00:57:44.394Z,1007.01
2022-09-11T00:58:44.391Z,1006.99
2022-09-11T00:59:44.387Z,1006.99
2022-09-11T01:00:44.433Z,1006.98
2022-09-11T01:01:44.385Z,1006.97
2022-09-11T01:02:44.347Z,1006.99
2022-09-11T01:03:44.333Z,1007.00
2022-09-11T01:04:44.335Z,1006.99
2022-09-11T01:05:44.332Z,1006.96
2022-09-11T01:06:44.320Z,1006.97
2022-09-11T01:07:44.288Z,1006.98
2022-09-11T01:08:44.276Z,1006.96
2022-09-11T01:09:44.262Z,1006.96
2022-09-11T01:10:44.267Z,1006.95
2022-09-11T01:11:44.238Z,1006.98
2022-09-11T01:12:44.239Z,1006.98
2022-09-11T01:13:44.224Z,1007.00
2022-09-11T01:14:44.219Z,1006.99
2022-09-11T01:15:44.204Z,1006.96
2022-09-11T01:16:44.187Z,1006.99
2022-09-11T01:17:44.180Z,1006.92
2022-09-11T01:18:44.170Z,1006.97
2022-09-11T01:19:44.150Z,1006.93
2022-09-11T01:20:44.146Z,1006.95
2022-09-11T01:21:44.144Z,1006.97
2022-09-11T01:22:44.143Z,1006.96
2022-09-11T01:23:44.124Z,1006.95
2022-09-11T01:24:44.099Z,1006.95
2022-09-11T01:25:44.094Z,1006.96
2022-09-11T01:26:44.095Z,1006.99
2022-09-11T01:27:44.077Z,1006.97
2022-09-11T01:28:44.074Z,1007.02
2022-09-11T01:29:44.051Z,1006.98
2022-09-11T01:30:44.037Z,1007.00
2022-09-11T01:31:44.065Z,1007.01
2022-09-11T01:32:44.030Z,1007.00
2022-09-11T01:33:44.018Z,1007.01
2022-09-11T01:34:44.013Z,1007.00
2022-09-11T01:35:43.985Z,1007.01
2022-09-11T01:36:43.984Z,1007.02
2022-09-11T01:37:43.957Z,1007.00
2022-09-11T01:38:43.952Z,1007.01
2022-09-11T01:39:43.991Z,1006.99
2022-09-11T01:40:43.936Z,1007.03
2022-09-11T01:41:43.912Z,1007.04
2022-09-11T01:42:43.905Z,1007.02
2022-09-11T01:43:43.896Z,1007.00
2022-09-11T01:44:43.885Z,1007.03
2022-09-11T01:45:43.939Z,1007.01
2022-09-11T01:46:43.864Z,1007.04
2022-09-11T01:47:43.855Z,1007.02
2022-09-11T01:48:43.854Z,1007.06
2022-09-11T01:49:43.830Z,1007.05
2022-09-11T01:50:43.848Z,1007.02
2022-09-11T01:51:43.811Z,1007.05
2022-09-11T01:52:43.803Z,1007.04
2022-09-11T01:53:48.133Z,1007.10
2022-09-11T01:54:43.778Z,1007.03
2022-09-11T01:55:43.773Z,1007.09
2022-09-11T01:56:43.764Z,1007.08
2022-09-11T01:57:43.740Z,1007.08
2022-09-11T01:58:43.736Z,1007.09
2022-09-11T01:59:43.719Z,1007.11
2022-09-11T02:00:43.742Z,1007.12
2022-09-11T02:01:43.741Z,1007.12
2022-09-11T02:02:43.691Z,1007.12
2022-09-11T02:03:43.683Z,1007.14
2022-09-11T02:04:43.668Z,1007.11
2022-09-11T02:05:43.674Z,1007.09
2022-09-11T02:06:43.645Z,1007.09
2022-09-11T02:07:43.634Z,1007.10
2022-09-11T02:08:43.673Z,1007.10
2022-09-11T02:09:43.609Z,1007.08
2022-09-11T02:10:43.611Z,1007.09
2022-09-11T02:11:43.617Z,1007.10
2022-09-11T02:12:43.587Z,1007.06
2022-09-11T02:13:43.617Z,1007.08
2022-09-11T02:14:43.560Z,1007.09
2022-09-11T02:15:43.554Z,1007.08
2022-09-11T02:16:43.551Z,1007.11
2022-09-11T02:17:43.527Z,1007.06
2022-09-11T02:18:43.513Z,1007.08
2022-09-11T02:19:43.506Z,1007.10
2022-09-11T02:20:43.495Z,1007.08
2022-09-11T02:21:43.500Z,1007.14
2022-09-11T02:22:43.500Z,1007.14
2022-09-11T02:23:43.617Z,1007.20
2022-09-11T02:24:43.468Z,1007.18
2022-09-11T02:25:43.434Z,1007.18
2022-09-11T02:26:43.463Z,1007.17
2022-09-11T02:27:43.419Z,1007.17
2022-09-11T02:28:43.415Z,1007.14
2022-09-11T02:29:43.407Z,1007.15
2022-09-11T02:30:43.390Z,1007.16
2022-09-11T02:31:43.400Z,1007.19
2022-09-11T02:32:43.375Z,1007.20
2022-09-11T02:33:43.452Z,1007.22
2022-09-11T02:34:43.353Z,1007.17
2022-09-11T02:35:43.335Z,1007.18
2022-09-11T02:36:43.319Z,1007.18
2022-09-11T02:37:43.314Z,1007.19
2022-09-11T02:38:43.308Z,1007.19
2022-09-11T02:39:43.350Z,1007.18
2022-09-11T02:40:43.302Z,1007.19
2022-09-11T02:41:43.275Z,1007.19
2022-09-11T02:42:43.259Z,1007.22
2022-09-11T02:43:43.324Z,1007.18
2022-09-11T02:44:43.248Z,1007.22
2022-09-11T02:45:43.286Z,1007.24
2022-09-11T02:46:43.214Z,1007.21
2022-09-11T02:47:43.215Z,1007.25
2022-09-11T02:48:43.195Z,1007.23
2022-09-11T02:49:43.190Z,1007.25
2022-09-11T02:50:43.173Z,1007.27
2022-09-11T02:51:43.163Z,1007.24
2022-09-11T02:52:43.155Z,1007.28
2022-09-11T02:53:43.304Z,1007.30
2022-09-11T02:54:43.125Z,1007.29
2022-09-11T02:55:43.142Z,1007.30
2022-09-11T02:56:43.107Z,1007.33
2022-09-11T02:57:43.111Z,1007.32
2022-09-11T02:58:43.077Z,1007.29
2022-09-11T02:59:43.066Z,1007.32
2022-09-11T03:00:43.146Z,1007.33
2022-09-11T03:01:43.091Z,1007.32
2022-09-11T03:02:43.041Z,1007.32
2022-09-11T03:03:45.696Z,1007.31
2022-09-11T03:04:43.008Z,1007.29
2022-09-11T03:05:43.005Z,1007.33
2022-09-11T03:06:43.000Z,1007.31
2022-09-11T03:07:42.979Z,1007.32
2022-09-11T03:08:42.980Z,1007.33
2022-09-11T03:09:42.972Z,1007.34
2022-09-11T03:10:42.952Z,1007.33
2022-09-11T03:11:42.951Z,1007.38
2022-09-11T03:12:42.922Z,1007.37
2022-09-11T03:13:43.045Z,1007.36
2022-09-11T03:14:42.904Z,1007.41
2022-09-11T03:15:42.905Z,1007.40
2022-09-11T03:16:42.917Z,1007.41
2022-09-11T03:17:42.887Z,1007.44
2022-09-11T03:18:42.864Z,1007.38
2022-09-11T03:19:42.869Z,1007.41
2022-09-11T03:20:42.841Z,1007.42
2022-09-11T03:21:42.835Z,1007.41
2022-09-11T03:22:42.812Z,1007.42
2022-09-11T03:23:42.953Z,1007.48
2022-09-11T03:24:42.795Z,1007.50
2022-09-11T03:25:42.803Z,1007.51
2022-09-11T03:26:42.767Z,1007.50
2022-09-11T03:27:42.761Z,1007.53
2022-09-11T03:28:42.770Z,1007.52
2022-09-11T03:29:42.753Z,1007.56
2022-09-11T03:30:42.735Z,1007.58
2022-09-11T03:31:42.784Z,1007.58
2022-09-11T03:32:42.695Z,1007.58
2022-09-11T03:33:42.770Z,1007.58
2022-09-11T03:34:42.681Z,1007.58
2022-09-11T03:35:42.690Z,1007.59
2022-09-11T03:36:42.663Z,1007.60
2022-09-11T03:37:42.647Z,1007.62
2022-09-11T03:38:42.634Z,1007.61
2022-09-11T03:39:42.645Z,1007.64
2022-09-11T03:40:42.628Z,1007.64
2022-09-11T03:41:42.617Z,1007.65
2022-09-11T03:42:42.613Z,1007.61
2022-09-11T03:43:42.606Z,1007.64
2022-09-11T03:44:42.570Z,1007.64
2022-09-11T03:45:42.612Z,1007.68
2022-09-11T03:46:42.555Z,1007.72
2022-09-11T03:47:42.536Z,1007.72
2022-09-11T03:48:42.540Z,1007.75
2022-09-11T03:49:42.525Z,1007.74
2022-09-11T03:50:42.504Z,1007.79
2022-09-11T03:51:42.508Z,1007.78
2022-09-11T03:52:42.482Z,1007.79
2022-09-11T03:53:42.608Z,1007.79
2022-09-11T03:54:42.451Z,1007.81
2022-09-11T03:55:42.455Z,1007.82
2022-09-11T03:56:42.440Z,1007.83
2022-09-11T03:57:42.435Z,1007.88
2022-09-11T03:58:42.436Z,1007.86
2022-09-11T03:59:42.418Z,1007.87
2022-09-11T04:00:42.420Z,1007.87
2022-09-11T04:01:42.428Z,1007.89
2022-09-11T04:02:42.365Z,1007.91
2022-09-11T04:03:42.484Z,1007.92
2022-09-11T04:04:42.360Z,1007.93
2022-09-11T04:05:42.345Z,1007.95
2022-09-11T04:06:42.324Z,1007.98
2022-09-11T04:07:42.325Z,1007.94
2022-09-11T04:08:42.300Z,1007.95
2022-09-11T04:09:42.338Z,1007.96
2022-09-11T04:10:42.282Z,1007.98
2022-09-11T04:11:42.284Z,1008.04
2022-09-11T04:12:42.259Z,1008.04
2022-09-11T04:13:42.399Z,1008.02
2022-09-11T04:14:42.239Z,1008.06
2022-09-11T04:15:42.235Z,1008.03
2022-09-11T04:16:42.267Z,1008.05
2022-09-11T04:17:42.224Z,1008.10
2022-09-11T04:18:42.204Z,1008.04
2022-09-11T04:19:42.193Z,1008.07
2022-09-11T04:20:42.183Z,1008.06
2022-09-11T04:21:42.164Z,1008.10
2022-09-11T04:22:42.153Z,1008.10
2022-09-11T04:23:42.287Z,1008.09
2022-09-11T04:24:42.127Z,1008.10
2022-09-11T04:25:42.132Z,1008.09
2022-09-11T04:26:42.123Z,1008.08
2022-09-11T04:27:42.107Z,1008.11
2022-09-11T04:28:42.085Z,1008.10
2022-09-11T04:29:42.082Z,1008.11
2022-09-11T04:30:42.115Z,1008.07
2022-09-11T04:31:42.106Z,1008.08
2022-09-11T04:32:42.037Z,1008.09
2022-09-11T04:33:42.200Z,1008.11
2022-09-11T04:34:42.037Z,1008.11
2022-09-11T04:35:42.019Z,1008.09
2022-09-11T04:36:42.006Z,1008.10
2022-09-11T04:37:41.991Z,1008.13
2022-09-11T04:38:41.977Z,1008.18
2022-09-11T04:39:42.011Z,1008.20
2022-09-11T04:40:41.951Z,1008.19
2022-09-11T04:41:41.994Z,1008.18
2022-09-11T04:42:41.938Z,1008.17
2022-09-11T04:43:42.087Z,1008.15
2022-09-11T04:44:41.932Z,1008.14
2022-09-11T04:45:41.916Z,1008.15
2022-09-11T04:46:41.886Z,1008.17
2022-09-11T04:47:41.897Z,1008.16
2022-09-11T04:48:41.899Z,1008.18
2022-09-11T04:49:41.872Z,1008.17
2022-09-11T04:50:41.872Z,1008.17
2022-09-11T04:51:41.843Z,1008.19
2022-09-11T04:52:41.824Z,1008.20
2022-09-11T04:53:41.930Z,1008.18
2022-09-11T04:54:41.804Z,1008.18
2022-09-11T04:55:41.792Z,1008.25
2022-09-11T04:56:41.783Z,1008.22
2022-09-11T04:57:41.783Z,1008.21
2022-09-11T04:58:41.779Z,1008.22
2022-09-11T04:59:41.775Z,1008.20
2022-09-11T05:00:41.800Z,1008.19
2022-09-11T05:01:41.731Z,1008.23
2022-09-11T05:02:41.715Z,1008.20
2022-09-11T05:03:41.763Z,1008.16
2022-09-11T05:04:41.712Z,1008.15
2022-09-11T05:05:41.699Z,1008.13
2022-09-11T05:06:41.679Z,1008.09
2022-09-11T05:07:41.698Z,1008.07
2022-09-11T05:08:41.661Z,1008.09
2022-09-11T05:09:41.662Z,1008.13
2022-09-11T05:10:41.673Z,1008.20
2022-09-11T05:11:41.639Z,1008.20
2022-09-11T05:12:41.616Z,1008.21
2022-09-11T05:13:41.681Z,1008.20
2022-09-11T05:14:41.589Z,1008.22
2022-09-11T05:15:41.596Z,1008.20
2022-09-11T05:16:41.602Z,1008.24
2022-09-11T05:17:41.566Z,1008.23
2022-09-11T05:18:41.556Z,1008.23
2022-09-11T05:19:41.545Z,1008.22
2022-09-11T05:20:41.546Z,1008.25
2022-09-11T05:21:41.516Z,1008.20
2022-09-11T05:22:41.500Z,1008.23
2022-09-11T05:23:41.601Z,1008.28
2022-09-11T05:24:41.493Z,1008.28
2022-09-11T05:25:41.502Z,1008.33
2022-09-11T05:26:41.465Z,1008.30
2022-09-11T05:27:41.555Z,1008.31
2022-09-11T05:28:41.443Z,1008.31
2022-09-11T05:29:41.503Z,1008.33
2022-09-11T05:30:41.454Z,1008.34
2022-09-11T05:31:41.466Z,1008.36
2022-09-11T05:32:41.413Z,1008.39
2022-09-11T05:33:41.477Z,1008.40
2022-09-11T05:34:41.379Z,1008.39
2022-09-11T05:35:41.377Z,1008.40
2022-09-11T05:36:41.352Z,1008.42
2022-09-11T05:37:41.367Z,1008.41
2022-09-11T05:38:41.331Z,1008.44
2022-09-11T05:39:41.334Z,1008.45
2022-09-11T05:40:41.314Z,1008.50
2022-09-11T05:41:41.304Z,1008.48
2022-09-11T05:42:41.300Z,1008.52
2022-09-11T05:43:41.417Z,1008.53
2022-09-11T05:44:41.269Z,1008.51
2022-09-11T05:45:41.288Z,1008.52
2022-09-11T05:46:41.246Z,1008.56
2022-09-11T05:47:41.254Z,1008.54
2022-09-11T05:48:41.219Z,1008.58
2022-09-11T05:49:41.217Z,1008.58
2022-09-11T05:50:41.201Z,1008.64
2022-09-11T05:51:41.190Z,1008.70
2022-09-11T05:52:41.174Z,1008.67
2022-09-11T05:53:41.274Z,1008.72
2022-09-11T05:54:41.181Z,1008.74
2022-09-11T05:55:41.160Z,1008.80
2022-09-11T05:56:41.129Z,1008.80
2022-09-11T05:57:41.121Z,1008.81
2022-09-11T05:58:41.113Z,1008.86
2022-09-11T05:59:41.103Z,1008.88
2022-09-11T06:00:41.093Z,1008.85
2022-09-11T06:01:41.084Z,1008.89
2022-09-11T06:02:41.085Z,1008.92
2022-09-11T06:03:41.235Z,1008.93
2022-09-11T06:04:41.039Z,1008.92
2022-09-11T06:05:41.031Z,1008.99
2022-09-11T06:06:41.178Z,1009.00
2022-09-11T06:07:41.019Z,1009.01
2022-09-11T06:08:40.998Z,1009.03
2022-09-11T06:09:40.989Z,1009.03
2022-09-11T06:10:41.001Z,1009.04
2022-09-11T06:11:40.969Z,1009.04
2022-09-11T06:12:40.961Z,1009.03
2022-09-11T06:13:41.020Z,1009.09
2022-09-11T06:14:40.945Z,1009.08
2022-09-11T06:15:46.747Z,1009.11
2022-09-11T06:16:41.064Z,1009.09
2022-09-11T06:17:40.912Z,1009.06
2022-09-11T06:18:40.892Z,1009.08
2022-09-11T06:19:40.897Z,1009.08
2022-09-11T06:20:40.875Z,1009.12
2022-09-11T06:21:40.876Z,1009.13
2022-09-11T06:22:40.852Z,1009.14
2022-09-11T06:23:40.903Z,1009.16
2022-09-11T06:24:40.866Z,1009.16
2022-09-11T06:25:40.821Z,1009.17
2022-09-11T06:26:40.810Z,1009.17
2022-09-11T06:27:40.807Z,1009.20
2022-09-11T06:28:40.781Z,1009.19
2022-09-11T06:29:40.796Z,1009.21
2022-09-11T06:30:40.885Z,1009.21
2022-09-11T06:31:40.751Z,1009.22
2022-09-11T06:32:40.735Z,1009.20
2022-09-11T06:33:40.810Z,1009.24
2022-09-11T06:34:40.743Z,1009.23
2022-09-11T06:35:40.728Z,1009.25
2022-09-11T06:36:40.694Z,1009.23
2022-09-11T06:37:40.685Z,1009.28
2022-09-11T06:38:40.667Z,1009.27
2022-09-11T06:39:40.684Z,1009.24
2022-09-11T06:40:40.657Z,1009.22
2022-09-11T06:41:40.648Z,1009.24
2022-09-11T06:42:40.633Z,1009.25
2022-09-11T06:43:40.646Z,1009.28
2022-09-11T06:44:40.598Z,1009.32
2022-09-11T06:45:40.685Z,1009.28
2022-09-11T06:46:40.587Z,1009.26
2022-09-11T06:47:40.586Z,1009.29
2022-09-11T06:48:40.569Z,1009.31
2022-09-11T06:49:40.550Z,1009.31
2022-09-11T06:50:40.554Z,1009.31
2022-09-11T06:51:40.554Z,1009.34
2022-09-11T06:52:40.583Z,1009.34
2022-09-11T06:53:40.557Z,1009.33
2022-09-11T06:54:40.529Z,1009.33
2022-09-11T06:55:40.494Z,1009.32
2022-09-11T06:56:40.488Z,1009.35
2022-09-11T06:57:42.050Z,1009.35
2022-09-11T06:58:40.453Z,1009.35
2022-09-11T06:59:40.440Z,1009.36
2022-09-11T07:00:40.441Z,1009.36
2022-09-11T07:01:40.632Z,1009.35
2022-09-11T07:02:40.434Z,1009.37
2022-09-11T07:03:40.442Z,1009.35
2022-09-11T07:04:40.399Z,1009.34
2022-09-11T07:05:40.416Z,1009.34
2022-09-11T07:06:40.360Z,1009.36
2022-09-11T07:07:40.420Z,1009.34
2022-09-11T07:08:40.350Z,1009.34
2022-09-11T07:09:40.351Z,1009.33
2022-09-11T07:10:40.347Z,1009.34
2022-09-11T07:11:40.310Z,1009.37
2022-09-11T07:12:40.361Z,1009.35
2022-09-11T07:13:40.335Z,1009.36
2022-09-11T07:14:40.286Z,1009.37
2022-09-11T07:15:40.285Z,1009.40
2022-09-11T07:16:40.299Z,1009.43
2022-09-11T07:17:40.247Z,1009.39
2022-09-11T07:18:40.238Z,1009.41
2022-09-11T07:19:40.294Z,1009.43
2022-09-11T07:20:40.231Z,1009.41
2022-09-11T07:21:40.231Z,1009.43
2022-09-11T07:22:40.196Z,1009.42
2022-09-11T07:23:40.187Z,1009.45
2022-09-11T07:24:40.168Z,1009.40
2022-09-11T07:25:40.172Z,1009.45
2022-09-11T07:26:40.166Z,1009.43
2022-09-11T07:27:40.158Z,1009.44
2022-09-11T07:28:40.126Z,1009.45
2022-09-11T07:29:40.126Z,1009.42
2022-09-11T07:30:40.150Z,1009.48
2022-09-11T07:31:40.099Z,1009.49
2022-09-11T07:32:40.094Z,1009.45
2022-09-11T07:33:40.090Z,1009.48
2022-09-11T07:34:40.100Z,1009.50
2022-09-11T07:35:40.057Z,1009.52
2022-09-11T07:36:40.037Z,1009.50
2022-09-11T07:37:40.048Z,1009.51
2022-09-11T07:38:40.018Z,1009.52
2022-09-11T07:39:40.042Z,1009.48
2022-09-11T07:40:39.991Z,1009.48
2022-09-11T07:41:39.988Z,1009.52
2022-09-11T07:42:39.988Z,1009.55
2022-09-11T07:43:39.967Z,1009.56
2022-09-11T07:44:39.974Z,1009.54
2022-09-11T07:45:39.975Z,1009.51
2022-09-11T07:46:39.935Z,1009.54
2022-09-11T07:47:39.935Z,1009.54
2022-09-11T07:48:39.991Z,1009.53
2022-09-11T07:49:39.924Z,1009.56
2022-09-11T07:50:39.891Z,1009.55
2022-09-11T07:51:39.883Z,1009.53
2022-09-11T07:52:39.863Z,1009.51
2022-09-11T07:53:39.956Z,1009.52
2022-09-11T07:54:39.861Z,1009.53
2022-09-11T07:55:39.848Z,1009.53
2022-09-11T07:56:39.828Z,1009.53
2022-09-11T07:57:39.823Z,1009.56
2022-09-11T07:58:39.828Z,1009.55
2022-09-11T07:59:39.820Z,1009.57
2022-09-11T08:00:39.817Z,1009.55
2022-09-11T08:01:39.833Z,1009.60
2022-09-11T08:02:39.807Z,1009.57
2022-09-11T08:03:39.829Z,1009.58
2022-09-11T08:04:39.775Z,1009.57
2022-09-11T08:05:39.736Z,1009.60
2022-09-11T08:06:39.739Z,1009.53
2022-09-11T08:07:39.714Z,1009.57
2022-09-11T08:08:39.695Z,1009.56
2022-09-11T08:09:39.681Z,1009.63
2022-09-11T08:10:39.680Z,1009.56
2022-09-11T08:11:39.686Z,1009.64
2022-09-11T08:12:39.657Z,1009.63
2022-09-11T08:13:39.728Z,1009.66
2022-09-11T08:14:39.627Z,1009.69
2022-09-11T08:15:39.623Z,1009.69
2022-09-11T08:16:39.680Z,1009.73
2022-09-11T08:17:39.609Z,1009.71
2022-09-11T08:18:39.595Z,1009.73
2022-09-11T08:19:39.582Z,1009.71
2022-09-11T08:20:39.570Z,1009.75
2022-09-11T08:21:39.556Z,1009.77
2022-09-11T08:22:39.559Z,1009.78
2022-09-11T08:23:39.595Z,1009.77
2022-09-11T08:24:39.622Z,1009.81
2022-09-11T08:25:39.521Z,1009.81
2022-09-11T08:26:39.629Z,1009.85
2022-09-11T08:27:39.498Z,1009.85
2022-09-11T08:28:39.482Z,1009.81
2022-09-11T08:29:39.466Z,1009.82
2022-09-11T08:30:39.461Z,1009.88
2022-09-11T08:31:39.444Z,1009.90
2022-09-11T08:32:39.445Z,1009.89
2022-09-11T08:33:39.460Z,1009.86
2022-09-11T08:34:39.423Z,1009.89
2022-09-11T08:35:39.416Z,1009.94
2022-09-11T08:36:39.389Z,1009.93
2022-09-11T08:37:39.398Z,1009.93
2022-09-11T08:38:39.364Z,1009.94
2022-09-11T08:39:39.398Z,1009.92
2022-09-11T08:40:39.362Z,1009.96
2022-09-11T08:41:39.416Z,1009.95
2022-09-11T08:42:39.361Z,1009.98
2022-09-11T08:43:39.420Z,1009.94
2022-09-11T08:44:39.376Z,1009.94
2022-09-11T08:45:39.361Z,1009.96
2022-09-11T08:46:39.279Z,1009.98
2022-09-11T08:47:39.279Z,1009.97
2022-09-11T08:48:39.291Z,1009.94
2022-09-11T08:49:39.315Z,1010.01
2022-09-11T08:50:39.264Z,1010.01
2022-09-11T08:51:39.302Z,1010.02
2022-09-11T08:52:39.215Z,1010.00
2022-09-11T08:53:39.277Z,1010.00
2022-09-11T08:54:39.200Z,1009.98
2022-09-11T08:55:39.200Z,1009.95
2022-09-11T08:56:39.183Z,1009.95
2022-09-11T08:57:39.183Z,1009.97
2022-09-11T08:58:39.207Z,1009.99
2022-09-11T08:59:39.164Z,1009.99
2022-09-11T09:00:39.139Z,1010.02
2022-09-11T09:01:39.187Z,1009.99
2022-09-11T09:02:39.114Z,1010.00
2022-09-11T09:03:39.126Z,1009.98
2022-09-11T09:04:39.109Z,1010.00
2022-09-11T09:05:39.086Z,1010.01
2022-09-11T09:06:39.103Z,1010.01
2022-09-11T09:07:39.057Z,1010.00
2022-09-11T09:08:39.036Z,1010.01
2022-09-11T09:09:39.040Z,1009.98
2022-09-11T09:10:39.026Z,1010.01
2022-09-11T09:11:39.014Z,1010.03
2022-09-11T09:12:39.019Z,1010.01
2022-09-11T09:13:38.993Z,1010.06
2022-09-11T09:14:38.977Z,1010.10
2022-09-11T09:15:39.099Z,1010.05
2022-09-11T09:16:38.977Z,1010.10
2022-09-11T09:17:38.973Z,1010.08
2022-09-11T09:18:38.963Z,1010.12
2022-09-11T09:19:38.945Z,1010.11
2022-09-11T09:20:38.920Z,1010.10
2022-09-11T09:21:38.907Z,1010.10
2022-09-11T09:22:38.927Z,1010.10
2022-09-11T09:23:38.894Z,1010.14
2022-09-11T09:24:38.872Z,1010.17
2022-09-11T09:25:38.874Z,1010.17
2022-09-11T09:26:38.887Z,1010.18
2022-09-11T09:27:38.841Z,1010.18
2022-09-11T09:28:38.844Z,1010.18
2022-09-11T09:29:38.814Z,1010.21
2022-09-11T09:30:38.797Z,1010.16
2022-09-11T09:31:38.802Z,1010.17
2022-09-11T09:32:38.794Z,1010.21
2022-09-11T09:33:38.820Z,1010.16
2022-09-11T09:34:38.775Z,1010.18
2022-09-11T09:35:38.773Z,1010.20
2022-09-11T09:36:38.737Z,1010.19
2022-09-11T09:37:38.731Z,1010.21
2022-09-11T09:38:38.723Z,1010.18
2022-09-11T09:39:38.821Z,1010.18
2022-09-11T09:40:38.701Z,1010.17
2022-09-11T09:41:38.691Z,1010.19
2022-09-11T09:42:38.697Z,1010.17
2022-09-11T09:43:38.693Z,1010.16
2022-09-11T09:44:38.726Z,1010.15
2022-09-11T09:45:38.690Z,1010.16
2022-09-11T09:46:38.627Z,1010.14
2022-09-11T09:47:38.627Z,1010.18
2022-09-11T09:48:38.614Z,1010.16
2022-09-11T09:49:38.622Z,1010.18
2022-09-11T09:50:38.664Z,1010.21
2022-09-11T09:51:38.584Z,1010.20
2022-09-11T09:52:38.566Z,1010.22
2022-09-11T09:53:38.556Z,1010.21
2022-09-11T09:54:38.603Z,1010.18
2022-09-11T09:55:38.559Z,1010.18
2022-09-11T09:56:38.536Z,1010.16
2022-09-11T09:57:38.517Z,1010.18
2022-09-11T09:58:38.510Z,1010.17
2022-09-11T09:59:38.495Z,1010.24
2022-09-11T10:00:38.501Z,1010.20
2022-09-11T10:01:38.506Z,1010.19
2022-09-11T10:02:38.532Z,1010.21
2022-09-11T10:03:38.456Z,1010.22
2022-09-11T10:04:38.431Z,1010.22
2022-09-11T10:05:38.435Z,1010.22
2022-09-11T10:06:38.410Z,1010.21
2022-09-11T10:07:38.418Z,1010.24
2022-09-11T10:08:38.399Z,1010.24
2022-09-11T10:09:38.385Z,1010.28
2022-09-11T10:10:38.379Z,1010.31
2022-09-11T10:11:38.361Z,1010.30
2022-09-11T10:12:38.353Z,1010.34
2022-09-11T10:13:38.360Z,1010.36
2022-09-11T10:14:53.658Z,1010.32
2022-09-11T10:15:38.406Z,1010.33
2022-09-11T10:16:38.343Z,1010.33
2022-09-11T10:17:38.304Z,1010.32
2022-09-11T10:18:38.294Z,1010.32
2022-09-11T10:19:38.268Z,1010.37
2022-09-11T10:20:38.257Z,1010.32
2022-09-11T10:21:38.256Z,1010.33
2022-09-11T10:22:38.244Z,1010.34
2022-09-11T10:23:38.243Z,1010.30
2022-09-11T10:24:38.222Z,1010.31
2022-09-11T10:25:38.264Z,1010.30
2022-09-11T10:26:38.245Z,1010.30
2022-09-11T10:27:38.212Z,1010.32
2022-09-11T10:28:38.176Z,1010.29
2022-09-11T10:29:38.174Z,1010.34
2022-09-11T10:30:38.164Z,1010.34
2022-09-11T10:31:38.163Z,1010.32
2022-09-11T10:32:38.148Z,1010.29
2022-09-11T10:33:38.112Z,1010.35
2022-09-11T10:34:38.126Z,1010.36
2022-09-11T10:35:38.109Z,1010.34
2022-09-11T10:36:38.082Z,1010.36
2022-09-11T10:37:38.102Z,1010.35
2022-09-11T10:38:41.359Z,1010.31
2022-09-11T10:39:38.105Z,1010.33
2022-09-11T10:40:38.043Z,1010.30
2022-09-11T10:41:38.038Z,1010.34
2022-09-11T10:42:38.055Z,1010.31
2022-09-11T10:43:38.046Z,1010.33
2022-09-11T10:44:37.995Z,1010.30
2022-09-11T10:45:38.089Z,1010.32
2022-09-11T10:46:40.973Z,1010.31
2022-09-11T10:47:37.982Z,1010.36
2022-09-11T10:48:37.954Z,1010.35
2022-09-11T10:49:37.944Z,1010.36
2022-09-11T10:50:37.930Z,1010.35
2022-09-11T10:51:37.916Z,1010.39
2022-09-11T10:52:37.938Z,1010.44
2022-09-11T10:53:37.904Z,1010.38
2022-09-11T10:54:37.889Z,1010.45
2022-09-11T10:55:37.882Z,1010.40
2022-09-11T10:56:37.974Z,1010.45
2022-09-11T10:57:37.868Z,1010.44
2022-09-11T10:58:37.858Z,1010.43
2022-09-11T10:59:37.834Z,1010.42
2022-09-11T11:00:37.826Z,1010.43
2022-09-11T11:01:37.932Z,1010.43
2022-09-11T11:02:37.806Z,1010.45
2022-09-11T11:03:37.813Z,1010.45
2022-09-11T11:04:37.850Z,1010.47
2022-09-11T11:05:37.806Z,1010.43
2022-09-11T11:06:37.776Z,1010.47
2022-09-11T11:07:37.745Z,1010.44
2022-09-11T11:08:37.744Z,1010.41
2022-09-11T11:09:37.757Z,1010.37
2022-09-11T11:10:37.719Z,1010.39
2022-09-11T11:11:37.710Z,1010.42
2022-09-11T11:12:37.735Z,1010.45
2022-09-11T11:13:37.719Z,1010.48
2022-09-11T11:14:37.688Z,1010.47
2022-09-11T11:15:37.717Z,1010.48
2022-09-11T11:16:37.664Z,1010.48
2022-09-11T11:17:37.647Z,1010.51
2022-09-11T11:18:37.677Z,1010.50
2022-09-11T11:19:37.632Z,1010.52
2022-09-11T11:20:37.638Z,1010.52
2022-09-11T11:21:37.624Z,1010.48
2022-09-11T11:22:37.605Z,1010.46
2022-09-11T11:23:37.583Z,1010.49
2022-09-11T11:24:37.588Z,1010.53
2022-09-11T11:25:37.569Z,1010.48
2022-09-11T11:26:37.568Z,1010.51
2022-09-11T11:27:37.544Z,1010.53
2022-09-11T11:28:37.536Z,1010.55
2022-09-11T11:29:37.545Z,1010.56
2022-09-11T11:30:37.646Z,1010.57
2022-09-11T11:31:40.337Z,1010.59
2022-09-11T11:32:37.517Z,1010.60
2022-09-11T11:33:37.512Z,1010.55
2022-09-11T11:34:37.501Z,1010.51
2022-09-11T11:35:37.462Z,1010.56
2022-09-11T11:36:37.622Z,1010.53
2022-09-11T11:37:37.517Z,1010.51
2022-09-11T11:38:38.033Z,1010.48
2022-09-11T11:39:37.482Z,1010.49
2022-09-11T11:40:37.426Z,1010.45
2022-09-11T11:41:37.408Z,1010.48
2022-09-11T11:42:37.386Z,1010.42
2022-09-11T11:43:37.389Z,1010.45
2022-09-11T11:44:37.399Z,1010.46
2022-09-11T11:45:37.428Z,1010.43
2022-09-11T11:46:37.329Z,1010.45
2022-09-11T11:47:37.336Z,1010.44
2022-09-11T11:48:37.364Z,1010.52
2022-09-11T11:49:37.315Z,1010.50
2022-09-11T11:50:37.315Z,1010.50
2022-09-11T11:51:37.285Z,1010.51
2022-09-11T11:52:37.279Z,1010.49
2022-09-11T11:53:37.270Z,1010.48
2022-09-11T11:54:37.251Z,1010.47
2022-09-11T11:55:37.557Z,1010.46
2022-09-11T11:56:37.243Z,1010.45
2022-09-11T11:57:37.224Z,1010.51
2022-09-11T11:58:37.304Z,1010.49
2022-09-11T11:59:38.148Z,1010.48
2022-09-11T12:00:37.574Z,1010.48
2022-09-11T12:01:37.252Z,1010.45
2022-09-11T12:02:37.167Z,1010.54
2022-09-11T12:03:37.219Z,1010.49
2022-09-11T12:04:37.156Z,1010.50
2022-09-11T12:05:37.137Z,1010.52